Atyla — YJTM7 — position and weather

sailwx.info

Track history (hours):
 
Tides and Currents Weather Stations Pressure Air Temp Water Temp Dewpoint Dewpoint Depression Visibility Wind Speed Wind Dir Waves Ship Positions

Atyla

Ship's website: http://atylaship.com

Last reported at 2017-Jun-23 00:29 UTC. Time now 2017-Jul-28 06:36 UTC.
Position N 42°41' W 070°14'.
Warning: this ship's position is 35 days out of date.

Length 24 m.

Type: Sailing vessel. MMSI: 577192000.

Date/timePositionNaut miles runAvg speedWind from/ knotsBaromVisibWave heightAir tempDewpointWater temp
2017-Jun-23 00:29N 42°41' W 070°14'2 5.0
2017-Jun-23 00:00N 42°41' W 070°17'3 5.4
2017-Jun-22 23:30N 42°40' W 070°20'3 5.3
2017-Jun-22 23:00N 42°39' W 070°24'3 5.6
2017-Jun-22 22:30N 42°38' W 070°27'3 5.7
2017-Jun-22 22:00N 42°37' W 070°31'1 2.8
2017-Jun-22 21:30N 42°37' W 070°29'2 3.5
2017-Jun-22 21:00N 42°36' W 070°29'3 5.2
2017-Jun-22 20:31N 42°34' W 070°32'2 4.8
2017-Jun-22 20:00N 42°33' W 070°35'3 5.0
2017-Jun-22 19:30N 42°31' W 070°38'2 4.8
2017-Jun-22 19:00N 42°30' W 070°40'3 5.6
2017-Jun-22 18:30N 42°29' W 070°44'11 6.8
2017-Jun-22 16:52N 42°22' W 070°55'3 7.2
2017-Jun-22 16:30N 42°20' W 070°58'  
2017-Jun-17 18:05N 42°21' W 071°02'0 2.5
2017-Jun-17 17:59N 42°21' W 071°02'2 5.1
2017-Jun-17 17:30N 42°20' W 070°58'3 6.0
2017-Jun-17 16:59N 42°22' W 070°55'1 0.2
2017-Jun-17 13:11N 42°23' W 070°56'0 0.0
2017-Jun-17 12:46N 42°23' W 070°56'0 0.0
2017-Jun-17 12:30N 42°23' W 070°56'0 0.0
2017-Jun-17 11:58N 42°23' W 070°56'0 0.0
2017-Jun-17 01:12N 42°23' W 070°56'0 0.0
2017-Jun-15 23:31N 42°23' W 070°56'0 0.0
2017-Jun-15 20:09N 42°23' W 070°55'  
Track history (hours):
 
Tides and Currents Weather Stations Pressure Air Temp Water Temp Dewpoint Dewpoint Depression Visibility Wind Speed Wind Dir Waves Ship Positions

Atyla

Ship's website: http://atylaship.com

Last reported at 2017-Jun-23 00:29 UTC. Time now 2017-Jul-28 06:36 UTC.
Position N 42°41' W 070°14'.
Warning: this ship's position is 35 days out of date.

Length 24 m.

Type: Sailing vessel. MMSI: 577192000.

Date/timePositionNaut miles runAvg speedWind from/ knotsBaromVisibWave heightAir tempDewpointWater temp
2017-Jun-23 00:29N 42°41' W 070°14'2 5.0
2017-Jun-23 00:00N 42°41' W 070°17'3 5.4
2017-Jun-22 23:30N 42°40' W 070°20'3 5.3
2017-Jun-22 23:00N 42°39' W 070°24'3 5.6
2017-Jun-22 22:30N 42°38' W 070°27'3 5.7
2017-Jun-22 22:00N 42°37' W 070°31'1 2.8
2017-Jun-22 21:30N 42°37' W 070°29'2 3.5
2017-Jun-22 21:00N 42°36' W 070°29'3 5.2
2017-Jun-22 20:31N 42°34' W 070°32'2 4.8
2017-Jun-22 20:00N 42°33' W 070°35'3 5.0
2017-Jun-22 19:30N 42°31' W 070°38'2 4.8
2017-Jun-22 19:00N 42°30' W 070°40'3 5.6
2017-Jun-22 18:30N 42°29' W 070°44'11 6.8
2017-Jun-22 16:52N 42°22' W 070°55'3 7.2
2017-Jun-22 16:30N 42°20' W 070°58'  
2017-Jun-17 18:05N 42°21' W 071°02'0 2.5
2017-Jun-17 17:59N 42°21' W 071°02'2 5.1
2017-Jun-17 17:30N 42°20' W 070°58'3 6.0
2017-Jun-17 16:59N 42°22' W 070°55'1 0.2
2017-Jun-17 13:11N 42°23' W 070°56'0 0.0
2017-Jun-17 12:46N 42°23' W 070°56'0 0.0
2017-Jun-17 12:30N 42°23' W 070°56'0 0.0
2017-Jun-17 11:58N 42°23' W 070°56'0 0.0
2017-Jun-17 01:12N 42°23' W 070°56'0 0.0
2017-Jun-15 23:31N 42°23' W 070°56'0 0.0
2017-Jun-15 20:09N 42°23' W 070°55'  

Dump ship's entire track history